AirNav   Everest Fuels
 
 454 users online  

PA57 Grove City Medical Center Heliport
Grove City, Pennsylvania, USA

GOING TO GROVE CITY?


FAA INFORMATION EFFECTIVE 18 JUNE 2020

Location

FAA Identifier: PA57
Lat/Long: 41-10-17.2500N 080-05-05.7000W
41-10.287500N 080-05.095000W
41.1714583,-80.0849167
(estimated)
Elevation: 1255 ft. / 383 m (estimated)
Variation: 09W (2000)
From city: 1 mile N of GROVE CITY, PA
Time zone: UTC -4 (UTC -5 during Standard Time)
Zip code: 16127

Heliport Operations

Heliport use: Private use. Permission required prior to landing
Activation date: 08/2008
Control tower: no
ARTCC: CLEVELAND CENTER
FSS: ALTOONA FLIGHT SERVICE STATION
NOTAMs facility: FDC (NOTAM-D service not available)
Attendance: UNATNDD
Segmented circle: no

Heliport Communications

YOUNGSTOWN APPROACH: 133.95
YOUNGSTOWN DEPARTURE: 133.95
GEPPE DP: 133.95
WX AWOS-3PT at FKL (16 nm NE): 118.175 ((814) 437-2066)
WX AWOS-3PT at UCP (17 nm SW): 124.175 ((724) 652-4184)
  • APCH/DEP SVC PRVDD BY CLEVELAND ARTCC (ZOB) ON 126.725/291.65 (BRADFORD RCAG), WHEN YOUNGSTOWN APCH CLSD.

Nearby radio navigation aids

VOR radial/distance  VOR name  Freq  Var
FKLr219/(19.0)FRANKLIN VOR109.6006W
EWCr023/21.6ELLWOOD CITY VOR/DME115.8008W
YNGr115/28.3YOUNGSTOWN VORTAC109.0005W
CIPr279/28.4CLARION VOR/DME112.9006W

 
NDB name  Hdg/Dist  Freq  Var  ID
CASTLE068/17.427209WUCP ..- -.-. .--.

Heliport Services

Runway Information

Helipad H1

Dimensions: 65 x 65 ft. / 20 x 20 m
Surface: asphalt, in fair condition
Latitude: 41-10.286833N
Longitude: 080-05.053333W
Elevation: 1255.0 ft.
Traffic pattern: leftleft
Markings: none, in fair condition

Heliport Ownership and Management from official FAA records

Ownership: Privately-owned
Owner: GROVE CITY MEDICAL CENTER
631 NORTH BROAD STREET EXTENSION
GROVE CITY, PA 16127
Phone 724-450-7140
Manager: DOUGLAS E. BUCHANAN
631 NORTH BROAD STREET EXTENSION
GROVE CITY, PA 16127
Phone (724) 450-7131

Additional Remarks

FOR CD CTC YOUNGSTOWN APCH AT 330-856-4806, WHEN APCH CLSD CTC CLEVELAND ARTCC AT 440-774-0234.

Instrument Procedures

There are no published instrument procedures at PA57.

Some nearby airports with instrument procedures:

29D - Grove City Airport (4 nm W)
KFKL - Venango Regional Airport (16 nm NE)
KUCP - New Castle Municipal Airport (17 nm SW)
4G1 - Greenville Municipal Airport (22 nm NW)
KPJC - Zelienople Municipal Airport (22 nm S)
 
Loc | Ops | Rwys | IFR | FBO | Links
Com | Nav | Svcs | Stats | Notes
Aerial photo
No photo
 
Sectional chart

 
Airport distance calculator
Flying to Grove City Medical Center Heliport? Find the distance to fly.

From to PA57

Sunrise and sunset
Times for 05-Jul-2020
 Local
(UTC-4)
 Zulu
(UTC)
Morning civil twilight05:2209:22
Sunrise05:5509:55
Sunset20:5500:55
Evening civil twilight21:2801:28

Current date and time
Zulu (UTC)  05-Jul-2020 04:51:29
Local (UTC-4)  05-Jul-2020 00:51:29
 
METAR
KFKL 
15nm NE 
050356Z AUTO 00000KT 10SM CLR 18/15 A3004 RMK AO2 SLP162 T01780150
KUCP 
17nm SW 
050356Z AUTO 00000KT 10SM CLR 18/14 A3002 RMK AO2 SLP171 T01780144 PNO $
KBTP 
25nm S 
050356Z AUTO 00000KT 10SM CLR A3001 RMK AO2 SLPNO FZRANO PNO $
KYNG 
27nm W 
050351Z 05004KT 10SM FEW250 18/13 A3001 RMK AO2 SLP154 T01830133
KBVI 
28nm SW 
050436Z AUTO 01003KT 10SM CLR 21/14 A3001 RMK AO2 T02140141
KGKJ 
28nm N 
050353Z AUTO 04003KT 10SM CLR 20/14 A3003 RMK AO2 SLP158 T02000139
TAF
KFKL 
15nm NE 
041726Z 0418/0518 35004KT P6SM SCT060
NOTAMs
Click for the latest NOTAMs
NOTAMs are issued by the DoD/FAA and will open in a separate window not controlled by AirNav.

 

 
 

Would you like to see your business listed on this page?

 If your business provides an interesting product or service to pilots, flight crews, aircraft, or users of the Grove City Medical Center Heliport, you should consider listing it here.  To start the listing process, click on the button below
 
Add a business
 

Other Pages about Grove City Medical Center Heliport

Update a link
 
Copyright © AirNav, LLC. All rights reserved. Privacy Policy  Contact